Hlavní strana
METAR-TAF:

METAR-TAF

Letiště :

Kassel, Německo

zeměpisná šířka: 51-24N, zeměpisná délka: 009-23E, výška: 277 m

Aktuální stav počasí

Zpráva byla vytvořena před 20 hodinami a 42 minutami, v 14:50 UTC
Severní vítr 7 kt
Teplota 3°C
Vlhkost vzduchu 60%
Tlak 1017 hPa
Viditelnost 10 km a více
Oblačno až skoro zataženo ve výšce 3400 ft

METAR: EDVK 201450Z 35007KT 9999 BKN034 03/M04 Q1017

Čas: 12:32 (11:32 UTC)

Předpověď počasí

Zpráva byla vytvořena před 21 hodinami a 32 minutami, v 14:00 UTC
Předpověď platná od 20 v 15 UTC do 20 v 24 UTC
Severovýchodní vítr 6 kt
Viditelnost 10 km a více
Polojasno ve výšce 4000 ft

TAF: EDVK 201400Z 2015/2024 04006KT 9999 SCT040

Stav a předpovědi počasí z více než 4 000 letišť (zprávy METAR a TAF).

Červené a žluté tečky na mapě představují dostupné meteorologické stanice.

Když kurzor umístíte na tečku, zobrazí se název stanice.

Pak kliknutím zobrazíte stav a předpověď počasí.

Chcete-li změnit mapu, kliknutím na zelené tlačítko se znaménkem +mapu přiblížíte, kliknutím na zelené tlačítko se znaménkem – mapu oddálíte a kliknutím na zelené šipky přejdete na sousední mapy.


METAR-TAF: